Terminal Aerodrome Forecast
Issued by NWS

Home | Current Version | Previous Version | Text Only | Print | Product List | Glossary On
Versions: 1 2 3 4 5 6 7 8 9 10 11 12 13 14 15 16 17 18 19 20
000
FTUS42 KFFC 282143 AAA
TAFFTY
TAF AMD
KFTY 282143Z 2822/2918 25008KT P6SM FEW045 BKN250
     FM290100 25004KT P6SM SCT100 BKN250
     FM291400 26009KT P6SM SCT035 SCT150=

USA.gov is the U.S. government's official web portal to all federal, state and local government web resources and services.